Minneapolis, MN (55473)

3:58 PM CST on January 19, 2017 (GMT -0600)
Deltaville U.S.A. | | Change Station

Elev 1004 ft 44.73 °N, 93.97 °W | Updated 2 seconds ago

Overcast
Overcast
36.5 °F
Feels Like 34 °F
N
3.6
Wind Variable Wind from SE
Gusts 4.9 mph

Today
High -- | Low -- °F
--% Chance of Precip.
Yesterday
High -- | Low -- °F
Precip. -- in
Pressure 29.72 in
Visibility 7.0 miles
Clouds Overcast 7500 ft
Windchill 34 °F
Dew Point 32 °F
Humidity 83%
Rainfall 0.00 in
Snow Depth Not available.
7:46 AM 5:06 PM
Waning Gibbous, 50% visible
METAR KGYL 192155Z AUTO 13006KT 7SM OVC075 04/02 A2972 RMK AO2 T00350023
Pressure 29.72 in
Visibility 7.0 miles
Clouds Overcast 7500 ft
Windchill 34 °F
Dew Point 32 °F
Humidity 83%
Rainfall 0.00 in
Snow Depth Not available.
7:46 AM 5:06 PM
Waning Gibbous, 50% visible
METAR KGYL 192155Z AUTO 13006KT 7SM OVC075 04/02 A2972 RMK AO2 T00350023

Get Your Daily Forecast Email!

Thanks for signing up!

Be on the lookout for a verification email in your inbox.

You'll start receiving the daily forecast at 8 AM.

×

10-Day Weather Forecast

Almanac

Astronomy

Jan. 19, 2017 Rise Set
Actual Time
Civil Twilight
Nautical Twilight
Astronomical Twilight
Moon
Length of Visible Light
Length of Day
Tomorrow will be .
, % of the Moon is Illuminated

Today's Extremes

State Highs State Lows

Community

WunderPhotos

Upload Photos

1,962,540 photos uploaded!

WunderBlog® & News

Nearby

Air Quality

  Air Quality AQ Index Pollutant
Not available.

Snow Depth

Station Depth Elevation

Earthquake Activity

City Distance Mag. Time & Date
Minimum magnitude displayed is 2.5.

Coastal Water Temperatures

Place Temperature

Stations

Nearby Weather Stations

Station Location Temp. Windchill Dew Point Humidity Wind Precip. Elev Updated Type
                   

Watches & Warnings

There are currently no watches in effect.